createdAt,value
2023-03-26T00:01:43.321Z,14.02
2023-03-26T00:04:10.508Z,14.10
2023-03-26T00:06:40.421Z,15.32
2023-03-26T00:09:11.452Z,14.73
2023-03-26T00:11:38.023Z,23.85
2023-03-26T00:14:04.776Z,12.23
2023-03-26T00:16:32.441Z,16.87
2023-03-26T00:19:15.583Z,17.60
2023-03-26T00:21:42.860Z,11.90
2023-03-26T00:24:11.973Z,16.92
2023-03-26T00:26:38.835Z,14.48
2023-03-26T00:29:05.746Z,12.33
2023-03-26T00:31:33.672Z,17.80
2023-03-26T00:34:00.639Z,20.15
2023-03-26T00:36:29.340Z,12.63
2023-03-26T00:38:56.290Z,19.88
2023-03-26T00:41:24.626Z,18.43
2023-03-26T00:43:53.314Z,16.60
2023-03-26T00:46:20.467Z,12.65
2023-03-26T00:48:47.532Z,17.75
2023-03-26T00:51:20.559Z,21.65
2023-03-26T00:53:53.376Z,16.97
2023-03-26T00:56:20.146Z,18.70
2023-03-26T00:58:48.410Z,19.90
2023-03-26T01:01:17.161Z,18.17
2023-03-26T01:04:01.207Z,12.50
2023-03-26T01:06:39.263Z,16.90
2023-03-26T01:09:14.708Z,17.95
2023-03-26T01:11:45.364Z,20.55
2023-03-26T01:14:16.154Z,24.17
2023-03-26T01:16:45.873Z,19.42
2023-03-26T01:19:24.555Z,18.13
2023-03-26T01:21:54.055Z,17.67
2023-03-26T01:24:22.308Z,14.60
2023-03-26T01:27:09.662Z,12.73
2023-03-26T01:29:43.316Z,15.02
2023-03-26T01:32:22.375Z,21.50
2023-03-26T01:35:02.451Z,19.77
2023-03-26T01:37:38.587Z,17.33
2023-03-26T01:40:15.751Z,15.65
2023-03-26T01:42:48.365Z,17.92
2023-03-26T01:45:17.864Z,17.63
2023-03-26T01:47:46.650Z,16.55
2023-03-26T01:50:13.856Z,25.95
2023-03-26T01:52:40.687Z,19.33
2023-03-26T01:55:10.121Z,17.08
2023-03-26T01:57:49.585Z,15.30
2023-03-26T02:00:23.702Z,13.98
2023-03-26T02:03:16.673Z,14.55
2023-03-26T02:05:50.388Z,17.33
2023-03-26T02:08:23.114Z,15.68
2023-03-26T02:10:55.045Z,15.70
2023-03-26T02:13:22.336Z,13.75
2023-03-26T02:15:57.187Z,16.30
2023-03-26T02:18:23.989Z,17.30
2023-03-26T02:20:50.952Z,15.48
2023-03-26T02:23:17.721Z,15.93
2023-03-26T02:25:44.711Z,13.57
2023-03-26T02:28:12.626Z,15.25
2023-03-26T02:30:39.262Z,14.18
2023-03-26T02:33:05.830Z,14.38
2023-03-26T02:35:32.900Z,15.10
2023-03-26T02:37:59.502Z,16.23
2023-03-26T02:40:26.135Z,16.70
2023-03-26T02:42:52.906Z,16.20
2023-03-26T02:45:20.833Z,12.98
2023-03-26T02:47:47.429Z,12.10
2023-03-26T02:50:14.028Z,16.42
2023-03-26T02:52:40.613Z,15.15
2023-03-26T02:55:08.220Z,14.68
2023-03-26T02:57:34.800Z,16.13
2023-03-26T03:00:01.995Z,16.70
2023-03-26T03:02:29.983Z,15.05
2023-03-26T03:04:56.570Z,24.60
2023-03-26T03:07:23.188Z,18.88
2023-03-26T03:09:49.729Z,17.85
2023-03-26T03:12:16.243Z,12.70
2023-03-26T03:14:42.821Z,20.60
2023-03-26T03:17:09.591Z,20.67
2023-03-26T03:19:37.477Z,15.95
2023-03-26T03:22:04.087Z,17.27
2023-03-26T03:24:30.844Z,9.40
2023-03-26T03:26:57.596Z,14.90
2023-03-26T03:29:24.193Z,11.98
2023-03-26T03:31:50.726Z,13.20
2023-03-26T03:34:17.293Z,21.80
2023-03-26T03:36:45.480Z,13.77
2023-03-26T03:39:12.005Z,14.52
2023-03-26T03:41:38.566Z,12.02
2023-03-26T03:44:05.388Z,16.15
2023-03-26T03:46:32.017Z,16.02
2023-03-26T03:48:58.626Z,16.67
2023-03-26T03:51:25.349Z,23.67
2023-03-26T03:53:53.300Z,13.13
2023-03-26T03:56:20.018Z,13.68
2023-03-26T03:58:46.662Z,10.10
2023-03-26T04:01:13.544Z,17.27
2023-03-26T04:03:40.307Z,14.18
2023-03-26T04:06:08.304Z,14.55
2023-03-26T04:08:34.920Z,10.43
2023-03-26T04:11:03.004Z,9.48
2023-03-26T04:13:29.608Z,17.60
2023-03-26T04:15:59.644Z,7.18
2023-03-26T04:18:26.340Z,15.70
2023-03-26T04:20:53.284Z,12.98
2023-03-26T04:23:19.875Z,12.38
2023-03-26T04:25:49.941Z,10.50
2023-03-26T04:28:26.934Z,16.30
2023-03-26T04:30:53.982Z,9.68
2023-03-26T04:33:21.010Z,11.60
2023-03-26T04:35:48.140Z,8.35
2023-03-26T04:38:15.482Z,11.03
2023-03-26T04:40:42.772Z,13.45
2023-03-26T04:43:12.624Z,11.80
2023-03-26T04:45:40.552Z,8.02
2023-03-26T04:48:08.332Z,14.20
2023-03-26T04:50:35.027Z,7.87
2023-03-26T04:53:01.636Z,11.75
2023-03-26T04:55:32.993Z,10.20
2023-03-26T04:57:59.836Z,10.10
2023-03-26T05:00:26.560Z,8.98
2023-03-26T05:02:54.706Z,10.07
2023-03-26T05:05:21.887Z,9.10
2023-03-26T05:07:48.600Z,15.43
2023-03-26T05:10:16.901Z,7.13
2023-03-26T05:12:43.566Z,7.57
2023-03-26T05:15:11.921Z,9.57
2023-03-26T05:17:39.001Z,10.93
2023-03-26T05:20:13.639Z,7.22
2023-03-26T05:22:40.298Z,10.15
2023-03-26T05:25:08.189Z,10.90
2023-03-26T05:27:34.907Z,6.97
2023-03-26T05:30:01.854Z,10.95
2023-03-26T05:32:28.420Z,12.02
2023-03-26T05:34:55.221Z,10.18
2023-03-26T05:37:23.119Z,6.78
2023-03-26T05:39:53.168Z,11.80
2023-03-26T05:42:19.794Z,8.38
2023-03-26T05:44:46.334Z,10.93
2023-03-26T05:47:13.038Z,9.63
2023-03-26T05:49:39.724Z,12.20
2023-03-26T05:52:06.343Z,6.93
2023-03-26T05:54:34.434Z,14.00
2023-03-26T05:57:01.037Z,16.67
2023-03-26T05:59:27.731Z,10.85
2023-03-26T06:01:54.793Z,14.60
2023-03-26T06:04:21.462Z,8.73
2023-03-26T06:06:48.141Z,13.57
2023-03-26T06:09:14.811Z,10.98
2023-03-26T06:11:42.732Z,11.55
2023-03-26T06:14:09.397Z,17.85
2023-03-26T06:16:35.988Z,6.83
2023-03-26T06:19:02.829Z,11.48
2023-03-26T06:21:29.745Z,10.50
2023-03-26T06:23:56.709Z,12.27
2023-03-26T06:26:23.334Z,10.65
2023-03-26T06:28:51.360Z,14.13
2023-03-26T06:31:17.993Z,10.48
2023-03-26T06:33:45.054Z,8.55
2023-03-26T06:36:11.900Z,13.32
2023-03-26T06:38:38.502Z,9.32
2023-03-26T06:41:06.645Z,9.87
2023-03-26T06:43:33.296Z,11.15
2023-03-26T06:46:01.996Z,15.57
2023-03-26T06:48:28.964Z,9.60
2023-03-26T06:50:55.637Z,11.45
2023-03-26T06:53:22.388Z,14.47
2023-03-26T06:55:48.967Z,10.80
2023-03-26T06:58:15.652Z,7.65
2023-03-26T07:00:42.391Z,9.68
2023-03-26T07:03:10.526Z,10.13
2023-03-26T07:05:37.175Z,8.40
2023-03-26T07:08:03.919Z,8.73
2023-03-26T07:10:30.475Z,6.88
2023-03-26T07:12:57.073Z,7.28
2023-03-26T07:15:24.111Z,11.55
2023-03-26T07:17:50.792Z,11.23
2023-03-26T07:20:21.606Z,9.85
2023-03-26T07:22:48.761Z,15.40
2023-03-26T07:25:16.829Z,11.05
2023-03-26T07:27:57.420Z,9.48
2023-03-26T07:30:31.383Z,8.83
2023-03-26T07:33:01.932Z,8.35
2023-03-26T07:35:36.922Z,11.20
2023-03-26T07:38:22.312Z,9.18
2023-03-26T07:40:57.631Z,3.83
2023-03-26T07:43:38.637Z,4.93
2023-03-26T07:46:10.196Z,5.55
2023-03-26T07:48:40.935Z,4.75
2023-03-26T07:51:10.986Z,6.68
2023-03-26T07:53:38.113Z,5.85
2023-03-26T07:56:10.708Z,4.93
2023-03-26T07:58:50.922Z,5.40
2023-03-26T08:01:27.109Z,4.93
2023-03-26T08:04:23.651Z,7.03
2023-03-26T08:07:02.630Z,7.10
2023-03-26T08:09:35.145Z,3.87
2023-03-26T08:12:10.692Z,7.43
2023-03-26T08:14:49.217Z,6.68
2023-03-26T08:17:21.362Z,5.63
2023-03-26T08:20:01.636Z,8.43
2023-03-26T08:22:33.181Z,8.70
2023-03-26T08:25:14.978Z,6.72
2023-03-26T08:27:47.416Z,7.20
2023-03-26T08:30:18.682Z,6.18
2023-03-26T08:32:52.958Z,7.20
2023-03-26T08:35:19.653Z,4.30
2023-03-26T08:37:47.598Z,11.27
2023-03-26T08:40:21.501Z,6.05
2023-03-26T08:43:21.418Z,5.70
2023-03-26T08:46:15.080Z,7.80
2023-03-26T08:49:03.392Z,7.03
2023-03-26T08:52:09.979Z,8.40
2023-03-26T08:54:57.112Z,5.32
2023-03-26T08:58:03.170Z,5.80
2023-03-26T09:00:44.673Z,6.80
2023-03-26T09:03:49.724Z,2.83
2023-03-26T09:06:47.188Z,6.05
2023-03-26T09:09:46.933Z,5.63
2023-03-26T09:12:41.337Z,6.05
2023-03-26T09:15:35.928Z,2.58
2023-03-26T09:18:35.680Z,6.03
2023-03-26T09:21:31.638Z,5.60
2023-03-26T09:24:29.196Z,4.70
2023-03-26T09:27:07.398Z,4.63
2023-03-26T09:30:21.352Z,4.30
2023-03-26T09:33:21.595Z,6.70
2023-03-26T09:36:05.831Z,9.25
2023-03-26T09:38:43.225Z,4.80
2023-03-26T09:41:15.520Z,2.65
2023-03-26T09:44:20.111Z,4.15
2023-03-26T09:47:04.635Z,7.13
2023-03-26T09:49:51.531Z,3.70
2023-03-26T09:55:54.494Z,1.20
2023-03-26T09:58:41.881Z,0.82
2023-03-26T10:01:14.403Z,1.63
2023-03-26T10:03:51.485Z,1.23
2023-03-26T10:06:41.659Z,4.88
2023-03-26T10:09:24.346Z,1.65
2023-03-26T10:12:10.692Z,2.25
2023-03-26T10:14:46.290Z,1.80
2023-03-26T10:17:32.936Z,1.92
2023-03-26T10:20:28.721Z,1.42
2023-03-26T10:23:07.337Z,2.95
2023-03-26T10:25:53.958Z,2.70
2023-03-26T10:28:42.642Z,1.53
2023-03-26T10:31:36.095Z,1.15
2023-03-26T10:34:28.556Z,0.98
2023-03-26T10:37:07.037Z,1.63
2023-03-26T10:40:02.868Z,5.65
2023-03-26T10:42:50.246Z,3.07
2023-03-26T10:45:43.369Z,1.05
2023-03-26T10:48:40.063Z,0.77
2023-03-26T10:51:46.938Z,1.15
2023-03-26T10:54:25.546Z,1.38
2023-03-26T10:57:27.828Z,1.90
2023-03-26T11:00:25.367Z,2.72
2023-03-26T11:03:52.078Z,0.63
2023-03-26T11:41:40.693Z,0.73
2023-03-26T11:44:19.013Z,0.57
2023-03-26T11:46:49.908Z,0.60
2023-03-26T11:49:20.178Z,0.97
2023-03-26T11:51:47.747Z,1.02
2023-03-26T11:54:14.834Z,1.35
2023-03-26T11:57:04.792Z,0.70
2023-03-26T11:59:53.019Z,0.50
2023-03-26T12:02:26.139Z,0.53
2023-03-26T12:05:02.883Z,1.67
2023-03-26T12:07:31.877Z,1.15
2023-03-26T12:10:18.410Z,1.45
2023-03-26T12:12:47.943Z,1.27
2023-03-26T12:15:14.995Z,0.37
2023-03-26T12:17:42.121Z,0.95
2023-03-26T12:20:31.849Z,1.85
2023-03-26T12:23:00.121Z,0.40
2023-03-26T12:25:28.232Z,1.40
2023-03-26T12:28:01.197Z,1.73
2023-03-26T12:30:29.420Z,1.13
2023-03-26T12:32:58.085Z,2.00
2023-03-26T12:35:26.853Z,2.13
2023-03-26T12:37:54.698Z,1.63
2023-03-26T12:40:31.016Z,1.23
2023-03-26T12:44:56.402Z,0.88
2023-03-26T12:47:15.048Z,1.40
2023-03-26T12:48:44.227Z,1.23
2023-03-26T12:51:19.410Z,1.33
2023-03-26T12:54:00.123Z,0.60
2023-03-26T12:56:31.460Z,1.15
2023-03-26T12:59:13.879Z,0.93
2023-03-26T13:01:51.152Z,1.73
2023-03-26T13:04:38.192Z,0.80
2023-03-26T13:07:27.673Z,2.60
2023-03-26T13:10:28.471Z,0.52
2023-03-26T13:13:22.936Z,0.60
2023-03-26T13:15:57.236Z,0.80
2023-03-26T13:18:40.918Z,1.10
2023-03-26T13:21:21.081Z,1.33
2023-03-26T13:23:57.823Z,1.13
2023-03-26T13:26:49.475Z,1.02
2023-03-26T13:29:31.247Z,0.90
2023-03-26T13:32:11.533Z,1.90
2023-03-26T13:35:01.594Z,0.63
2023-03-26T13:37:37.734Z,0.55
2023-03-26T13:40:22.862Z,2.47
2023-03-26T13:43:12.365Z,0.57
2023-03-26T13:46:30.950Z,0.80
2023-03-26T13:49:01.869Z,0.30
2023-03-26T13:51:58.514Z,0.95
2023-03-26T13:54:38.562Z,1.23
2023-03-26T14:15:26.801Z,3.65
2023-03-26T14:18:31.298Z,0.65
2023-03-26T14:21:51.778Z,0.40
2023-03-26T14:24:40.928Z,0.40
2023-03-26T14:27:31.334Z,0.75
2023-03-26T14:30:20.652Z,0.60
2023-03-26T14:33:06.486Z,0.47
2023-03-26T14:35:39.735Z,0.50
2023-03-26T14:38:25.073Z,1.35
2023-03-26T14:40:57.405Z,2.13
2023-03-26T14:43:53.874Z,1.38
2023-03-26T14:46:35.126Z,0.50
2023-03-26T14:49:18.714Z,0.67
2023-03-26T14:52:01.835Z,0.70
2023-03-26T14:54:32.611Z,1.30
2023-03-26T14:57:35.972Z,1.08
2023-03-26T15:00:28.648Z,0.75
2023-03-26T15:03:58.641Z,0.83
2023-03-26T15:07:04.684Z,0.80
2023-03-26T15:10:09.833Z,0.70
2023-03-26T15:12:54.851Z,0.93
2023-03-26T15:16:17.494Z,0.65
2023-03-26T15:19:28.217Z,1.03
2023-03-26T15:22:36.778Z,0.75
2023-03-26T15:25:27.812Z,1.85
2023-03-26T15:28:19.737Z,1.00
2023-03-26T15:31:17.340Z,1.60
2023-03-26T15:34:06.975Z,1.33
2023-03-26T15:37:08.033Z,0.63
2023-03-26T15:39:59.111Z,2.72
2023-03-26T15:42:38.242Z,0.60
2023-03-26T15:45:40.684Z,0.95
2023-03-26T15:48:33.832Z,1.67
2023-03-26T15:51:52.686Z,1.38
2023-03-26T16:01:32.520Z,1.00
2023-03-26T16:08:32.064Z,2.03
2023-03-26T16:11:07.805Z,1.60
2023-03-26T16:15:19.618Z,1.20
2023-03-26T16:28:33.307Z,1.52
2023-03-26T16:31:37.211Z,2.42
2023-03-26T16:37:42.451Z,5.23
2023-03-26T16:40:32.746Z,2.05
2023-03-26T16:43:23.028Z,1.55
2023-03-26T16:45:58.569Z,2.45
2023-03-26T16:48:32.740Z,2.05
2023-03-26T16:51:11.753Z,3.10
2023-03-26T16:53:45.709Z,3.72
2023-03-26T16:56:23.881Z,5.30
2023-03-26T16:58:55.589Z,4.28
2023-03-26T17:01:34.513Z,4.28
2023-03-26T17:04:05.150Z,7.87
2023-03-26T17:07:02.051Z,15.27
2023-03-26T17:09:37.621Z,10.68
2023-03-26T17:12:12.526Z,11.88
2023-03-26T17:15:00.239Z,13.43
2023-03-26T17:17:52.582Z,8.60
2023-03-26T17:20:32.080Z,11.00
2023-03-26T17:23:18.321Z,12.50
2023-03-26T17:25:57.484Z,9.55
2023-03-26T17:28:44.950Z,8.38
2023-03-26T17:31:22.531Z,16.20
2023-03-26T17:33:50.850Z,4.95
2023-03-26T17:36:30.207Z,10.75
2023-03-26T17:39:01.100Z,13.63
2023-03-26T17:41:54.030Z,6.57
2023-03-26T17:44:39.896Z,8.90
2023-03-26T17:47:16.174Z,10.32
2023-03-26T17:49:45.695Z,14.30
2023-03-26T17:52:19.528Z,11.50
2023-03-26T17:54:48.612Z,10.75
2023-03-26T17:57:20.064Z,8.77
2023-03-26T17:59:49.233Z,7.03
2023-03-26T18:02:18.523Z,8.98
2023-03-26T18:04:49.761Z,13.27
2023-03-26T18:07:55.592Z,13.68
2023-03-26T18:10:39.782Z,8.33
2023-03-26T18:13:23.173Z,10.57
2023-03-26T18:16:01.786Z,13.68
2023-03-26T18:18:34.172Z,9.30
2023-03-26T18:21:05.895Z,12.07
2023-03-26T18:23:38.676Z,12.93
2023-03-26T18:26:15.353Z,13.27
2023-03-26T18:28:43.864Z,13.30
2023-03-26T18:31:18.311Z,8.90
2023-03-26T18:33:47.707Z,10.25
2023-03-26T18:36:17.658Z,12.40
2023-03-26T18:38:45.921Z,6.78
2023-03-26T18:41:23.763Z,14.88
2023-03-26T18:43:50.469Z,13.85
2023-03-26T18:46:17.137Z,11.95
2023-03-26T18:48:44.325Z,11.43
2023-03-26T18:51:11.279Z,9.27
2023-03-26T18:53:44.933Z,13.93
2023-03-26T18:56:28.120Z,7.32
2023-03-26T18:58:57.692Z,9.95
2023-03-26T19:01:27.011Z,11.10
2023-03-26T19:03:54.330Z,6.13
2023-03-26T19:06:22.175Z,8.23
2023-03-26T19:08:50.683Z,11.10
2023-03-26T19:11:17.973Z,7.05
2023-03-26T19:13:49.875Z,8.60
2023-03-26T19:16:22.553Z,11.43
2023-03-26T19:18:49.686Z,10.80
2023-03-26T19:21:16.584Z,6.13
2023-03-26T19:23:43.910Z,10.43
2023-03-26T19:26:12.669Z,5.30
2023-03-26T19:28:41.647Z,8.63
2023-03-26T19:31:11.038Z,10.75
2023-03-26T19:33:41.002Z,10.93
2023-03-26T19:36:17.962Z,8.65
2023-03-26T19:38:50.130Z,12.20
2023-03-26T19:41:22.271Z,8.27
2023-03-26T19:43:50.980Z,11.77
2023-03-26T19:46:19.309Z,10.05
2023-03-26T19:48:48.777Z,17.27
2023-03-26T19:51:20.462Z,10.47
2023-03-26T19:53:50.318Z,5.43
2023-03-26T19:56:18.644Z,10.75
2023-03-26T19:58:46.838Z,10.82
2023-03-26T20:01:16.946Z,11.02
2023-03-26T20:03:48.540Z,5.60
2023-03-26T20:06:17.710Z,9.93
2023-03-26T20:08:44.500Z,11.35
2023-03-26T20:11:15.747Z,8.27
2023-03-26T20:13:42.796Z,12.75
2023-03-26T20:16:17.053Z,12.70
2023-03-26T20:18:43.704Z,6.45
2023-03-26T20:21:11.342Z,9.00
2023-03-26T20:23:38.060Z,12.65
2023-03-26T20:26:05.141Z,9.98
2023-03-26T20:28:35.419Z,7.80
2023-03-26T20:31:15.432Z,6.60
2023-03-26T20:33:42.111Z,14.30
2023-03-26T20:36:11.615Z,4.65
2023-03-26T20:38:40.024Z,11.13
2023-03-26T20:41:09.512Z,5.77
2023-03-26T20:43:36.179Z,6.40
2023-03-26T20:46:03.203Z,17.83
2023-03-26T20:48:35.107Z,3.72
2023-03-26T20:51:09.142Z,3.60
2023-03-26T20:53:46.110Z,4.85
2023-03-26T20:56:14.754Z,9.57
2023-03-26T20:58:42.473Z,11.15
2023-03-26T21:01:09.733Z,6.32
2023-03-26T21:03:38.316Z,8.63
2023-03-26T21:06:07.454Z,4.72
2023-03-26T21:08:34.668Z,4.80
2023-03-26T21:11:02.373Z,8.63
2023-03-26T21:13:36.877Z,7.28
2023-03-26T21:16:03.920Z,13.00
2023-03-26T21:18:31.288Z,7.88
2023-03-26T21:21:17.994Z,5.68
2023-03-26T21:23:54.828Z,4.65
2023-03-26T21:26:29.407Z,6.25
2023-03-26T21:28:56.166Z,8.07
2023-03-26T21:31:23.843Z,10.05
2023-03-26T21:33:52.447Z,6.20
2023-03-26T21:36:21.595Z,6.35
2023-03-26T21:38:48.879Z,3.58
2023-03-26T21:41:29.779Z,6.40
2023-03-26T21:43:56.376Z,6.50
2023-03-26T21:46:23.489Z,8.57
2023-03-26T21:48:50.580Z,5.93
2023-03-26T21:51:17.949Z,6.60
2023-03-26T21:53:46.629Z,10.83
2023-03-26T21:56:21.444Z,7.38
2023-03-26T21:58:52.599Z,2.80
2023-03-26T22:01:27.979Z,6.30
2023-03-26T22:04:09.592Z,6.38
2023-03-26T22:06:42.448Z,1.80
2023-03-26T22:09:12.945Z,7.40
2023-03-26T22:11:40.619Z,8.55
2023-03-26T22:14:09.456Z,8.75
2023-03-26T22:16:36.205Z,7.85
2023-03-26T22:19:03.088Z,11.60
2023-03-26T22:21:29.714Z,6.55
2023-03-26T22:23:56.306Z,9.48
2023-03-26T22:26:26.159Z,11.13
2023-03-26T22:28:53.142Z,2.77
2023-03-26T22:31:19.800Z,8.05
2023-03-26T22:33:46.542Z,6.78
2023-03-26T22:36:22.782Z,17.70
2023-03-26T22:38:51.915Z,9.65
2023-03-26T22:41:18.642Z,6.67
2023-03-26T22:43:46.602Z,5.88
2023-03-26T22:46:13.554Z,8.80
2023-03-26T22:48:40.229Z,9.23
2023-03-26T22:51:08.741Z,9.75
2023-03-26T22:53:35.725Z,6.70
2023-03-26T22:56:02.410Z,6.70
2023-03-26T22:58:29.000Z,3.50
2023-03-26T23:01:03.056Z,5.07
2023-03-26T23:03:35.193Z,9.93
2023-03-26T23:06:04.131Z,11.05
2023-03-26T23:08:31.224Z,6.43
2023-03-26T23:10:58.280Z,6.72
2023-03-26T23:13:25.936Z,6.57
2023-03-26T23:15:54.376Z,7.15
2023-03-26T23:18:23.218Z,7.35
2023-03-26T23:20:50.693Z,5.90
2023-03-26T23:23:17.398Z,8.70
2023-03-26T23:25:44.370Z,4.60
2023-03-26T23:28:10.956Z,6.22
2023-03-26T23:30:37.757Z,8.40
2023-03-26T23:33:04.379Z,4.68
2023-03-26T23:35:32.510Z,5.67
2023-03-26T23:37:59.487Z,2.97
2023-03-26T23:40:28.896Z,11.23
2023-03-26T23:42:55.440Z,8.43
2023-03-26T23:45:22.145Z,7.78
2023-03-26T23:47:48.794Z,8.73
2023-03-26T23:50:17.881Z,6.28
2023-03-26T23:52:45.973Z,6.35
2023-03-26T23:55:12.523Z,8.57
2023-03-26T23:57:39.081Z,9.13
